createdAt,value
2023-04-18T03:39:45.600Z,2.10
2023-04-18T03:42:49.711Z,2.72
2023-04-18T03:45:52.583Z,3.00
2023-04-18T03:48:55.983Z,2.53
2023-04-18T03:51:58.785Z,3.20
2023-04-18T03:55:01.663Z,2.00
2023-04-18T03:58:05.210Z,2.05
2023-04-18T04:01:08.110Z,2.05
2023-04-18T04:04:13.098Z,2.58
2023-04-18T04:07:15.984Z,2.53
2023-04-18T04:13:23.141Z,2.47
2023-04-18T04:16:27.487Z,2.30
2023-04-18T04:19:30.549Z,2.62
2023-04-18T04:22:34.548Z,2.58
2023-04-18T04:25:38.672Z,2.75
2023-04-18T04:28:46.321Z,2.40
2023-04-18T04:31:49.936Z,2.83
2023-04-18T04:34:53.786Z,2.35
2023-04-18T04:37:56.884Z,2.40
2023-04-18T04:41:00.212Z,3.17
2023-04-18T04:44:04.293Z,2.85
2023-04-18T04:47:07.761Z,2.62
2023-04-18T04:50:15.366Z,2.25
2023-04-18T04:53:18.825Z,2.45
2023-04-18T04:56:22.890Z,2.78
2023-04-18T04:59:26.014Z,2.90
2023-04-18T05:02:30.047Z,2.97
2023-04-18T05:05:33.131Z,2.62
2023-04-18T05:08:36.007Z,3.35
2023-04-18T05:11:38.891Z,2.90
2023-04-18T05:14:41.498Z,2.97
2023-04-18T05:17:44.465Z,3.12
2023-04-18T05:20:47.064Z,2.90
2023-04-18T05:26:53.185Z,2.45
2023-04-18T05:29:56.319Z,3.00
2023-04-18T05:32:59.111Z,2.33
2023-04-18T05:36:02.190Z,2.70
2023-04-18T05:39:04.898Z,2.62
2023-04-18T05:42:08.149Z,2.65
2023-04-18T05:45:11.362Z,2.70
2023-04-18T05:48:14.505Z,2.72
2023-04-18T05:51:17.049Z,3.22
2023-04-18T05:54:23.140Z,2.55
2023-04-18T05:57:25.825Z,2.92
2023-04-18T06:00:29.149Z,2.87
2023-04-18T06:03:40.816Z,3.00
2023-04-18T06:06:43.582Z,3.28
2023-04-18T06:09:46.578Z,2.58
2023-04-18T06:12:49.548Z,2.55
2023-04-18T06:15:52.565Z,2.70
2023-04-18T06:21:58.091Z,2.25
2023-04-18T06:25:00.806Z,3.40
2023-04-18T06:31:06.112Z,1.98
2023-04-18T06:34:09.299Z,1.83
2023-04-18T06:37:12.056Z,2.25
2023-04-18T06:43:17.460Z,1.58
2023-04-18T06:46:21.306Z,2.05
2023-04-18T06:49:26.359Z,1.95
2023-04-18T06:52:29.743Z,1.95
2023-04-18T06:55:32.464Z,2.08
2023-04-18T06:58:35.465Z,2.10
2023-04-18T07:01:44.623Z,1.80
2023-04-18T07:04:47.884Z,2.05
2023-04-18T07:07:51.431Z,2.10
2023-04-18T07:10:54.356Z,2.20
2023-04-18T07:17:00.951Z,1.97
2023-04-18T07:20:03.981Z,1.95
2023-04-18T07:23:07.575Z,2.22
2023-04-18T07:26:12.644Z,1.70
2023-04-18T07:29:15.745Z,1.55
2023-04-18T07:35:21.797Z,1.45
2023-04-18T07:38:24.452Z,1.40
2023-04-18T07:41:27.424Z,1.42
2023-04-18T07:44:30.324Z,1.80
2023-04-18T07:47:33.709Z,1.60
2023-04-18T07:50:36.598Z,1.20
2023-04-18T07:56:43.671Z,1.02
2023-04-18T08:02:49.619Z,1.60
2023-04-18T08:05:53.590Z,1.20
2023-04-18T08:08:56.314Z,1.42
2023-04-18T08:15:02.006Z,1.40
2023-04-18T08:18:05.806Z,1.00
2023-04-18T08:24:11.124Z,1.37
2023-04-18T08:27:13.805Z,1.17
2023-04-18T08:30:16.980Z,1.48
2023-04-18T08:33:19.591Z,1.23
2023-04-18T08:39:25.390Z,1.08
2023-04-18T08:42:29.119Z,0.80
2023-04-18T08:45:33.430Z,0.88
2023-04-18T08:48:36.812Z,0.80
2023-04-18T08:51:41.678Z,0.70
2023-04-18T08:54:47.009Z,1.00
2023-04-18T08:57:54.100Z,0.85
2023-04-18T09:00:57.150Z,1.15
2023-04-18T09:03:59.865Z,0.75
2023-04-18T09:10:06.383Z,1.42
2023-04-18T09:13:10.029Z,0.90
2023-04-18T09:16:13.611Z,0.80
2023-04-18T09:19:19.370Z,1.25
2023-04-18T09:22:22.881Z,1.30
2023-04-18T09:25:27.385Z,0.90
2023-04-18T09:28:33.111Z,1.30
2023-04-18T09:31:54.783Z,1.00
2023-04-18T09:35:04.286Z,1.00
2023-04-18T09:38:07.945Z,1.05
2023-04-18T09:41:12.224Z,0.93
2023-04-18T09:44:17.160Z,0.80
2023-04-18T09:47:20.194Z,1.00
2023-04-18T09:53:26.703Z,1.27
2023-04-18T09:56:32.672Z,0.95
2023-04-18T09:59:55.240Z,1.20
2023-04-18T10:03:09.974Z,1.20
2023-04-18T10:09:36.765Z,1.12
2023-04-18T10:12:41.499Z,1.00
2023-04-18T10:15:44.562Z,1.27
2023-04-18T10:18:50.771Z,1.15
2023-04-18T10:21:53.976Z,0.75
2023-04-18T10:24:57.176Z,0.90
2023-04-18T10:31:04.304Z,0.70
2023-04-18T10:34:07.377Z,0.90
2023-04-18T10:37:12.980Z,0.90
2023-04-18T10:40:15.753Z,0.95
2023-04-18T10:43:18.773Z,0.52
2023-04-18T10:46:31.813Z,0.70
2023-04-18T10:49:38.626Z,0.90
2023-04-18T10:52:41.819Z,0.70
2023-04-18T10:55:54.553Z,0.80
2023-04-18T10:59:01.788Z,0.98
2023-04-18T11:02:13.825Z,0.70
2023-04-18T11:05:25.683Z,1.10
2023-04-18T11:08:28.765Z,0.80
2023-04-18T11:11:31.832Z,0.80
2023-04-18T11:14:44.698Z,0.68
2023-04-18T11:18:04.701Z,0.90
2023-04-18T11:21:07.930Z,0.68
2023-04-18T11:24:10.797Z,0.80
2023-04-18T11:27:14.193Z,0.77
2023-04-18T11:30:17.887Z,0.60
2023-04-18T11:33:21.016Z,0.68
2023-04-18T11:36:24.032Z,0.77
2023-04-18T11:39:27.595Z,0.70
2023-04-18T11:42:37.690Z,0.90
2023-04-18T11:45:51.507Z,0.70
2023-04-18T11:48:54.241Z,0.60
2023-04-18T11:52:01.477Z,0.80
2023-04-18T11:55:18.668Z,0.80
2023-04-18T11:58:31.709Z,0.75
2023-04-18T12:01:34.359Z,0.80
2023-04-18T12:04:58.315Z,0.98
2023-04-18T12:08:18.874Z,0.73
2023-04-18T12:11:21.782Z,0.82
2023-04-18T12:14:24.675Z,0.98
2023-04-18T12:17:28.488Z,0.75
2023-04-18T12:20:52.188Z,1.00
2023-04-18T12:23:55.326Z,1.00
2023-04-18T12:26:58.669Z,0.85
2023-04-18T12:30:01.900Z,0.82
2023-04-18T12:33:04.964Z,0.70
2023-04-18T12:36:08.660Z,0.80
2023-04-18T12:39:11.361Z,0.88
2023-04-18T12:42:14.293Z,0.75
2023-04-18T12:45:18.124Z,0.75
2023-04-18T12:48:21.016Z,0.60
2023-04-18T12:51:24.352Z,1.00
2023-04-18T12:54:27.206Z,0.80
2023-04-18T12:57:31.684Z,0.65
2023-04-18T13:00:35.166Z,0.60
2023-04-18T13:03:38.300Z,0.40
2023-04-18T13:06:41.521Z,0.70
2023-04-18T13:09:46.465Z,1.10
2023-04-18T13:12:50.209Z,0.73
2023-04-18T13:15:52.826Z,0.57
2023-04-18T13:18:55.688Z,0.60
2023-04-18T13:21:59.330Z,0.60
2023-04-18T13:25:02.253Z,0.60
2023-04-18T13:28:05.216Z,0.85
2023-04-18T13:31:08.215Z,0.93
2023-04-18T13:34:10.859Z,1.27
2023-04-18T13:37:17.057Z,1.00
2023-04-18T13:40:19.843Z,0.80
2023-04-18T13:43:22.890Z,0.70
2023-04-18T13:46:27.600Z,0.80
2023-04-18T13:49:30.921Z,0.60
2023-04-18T13:52:33.874Z,0.60
2023-04-18T13:55:37.216Z,0.60
2023-04-18T13:58:39.725Z,0.70
2023-04-18T14:01:42.925Z,1.10
2023-04-18T14:04:46.527Z,0.80
2023-04-18T14:07:49.192Z,0.70
2023-04-18T14:10:52.406Z,0.80
2023-04-18T14:13:55.144Z,0.80
2023-04-18T14:16:58.166Z,0.65
2023-04-18T14:20:01.505Z,0.55
2023-04-18T14:23:04.468Z,0.68
2023-04-18T14:26:07.094Z,0.60
2023-04-18T14:29:10.143Z,0.70
2023-04-18T14:32:13.743Z,0.52
2023-04-18T14:35:16.913Z,0.70
2023-04-18T14:38:19.542Z,0.75
2023-04-18T14:41:22.371Z,0.80
2023-04-18T14:44:25.531Z,0.70
2023-04-18T14:47:31.901Z,0.70
2023-04-18T14:50:36.011Z,0.90
2023-04-18T14:53:39.119Z,0.62
2023-04-18T14:56:41.863Z,0.57
2023-04-18T14:59:44.848Z,0.70
2023-04-18T15:02:47.936Z,0.85
2023-04-18T15:05:53.189Z,0.70
2023-04-18T15:08:56.723Z,0.88
2023-04-18T15:12:00.164Z,0.60
2023-04-18T15:15:02.825Z,0.85
2023-04-18T15:18:07.544Z,0.70
2023-04-18T15:21:10.281Z,0.80
2023-04-18T15:24:13.339Z,0.75
2023-04-18T15:27:16.219Z,0.80
